Time;durP1;ratioP1;P1;durP2;ratioP2;P2;SDS_P1;SDS_P2;PMS_P1;PMS_P2;Temp;Humidity;BMP_temperature;BMP_pressure;BME280_temperature;BME280_humidity;BME280_pressure;Samples;Min_cycle;Max_cycle;Signal;HPM_P1;HPM_P2
2021/05/07 00:00:31;;;;;;;21.47;18.57;;;6.70;79.70;;;;;;4958382;29;20170;-88
2021/05/07 00:02:56;;;;;;;25.57;21.77;;;4.20;76.30;;;;;;4957376;28;20205;-88
2021/05/07 00:05:22;;;;;;;27.60;22.20;;;7.30;81.70;;;;;;4956097;29;20243;-88
2021/05/07 00:07:48;;;;;;;23.80;21.20;;;5.50;78.80;;;;;;4957957;29;20712;-88
2021/05/07 00:10:13;;;;;;;26.03;20.60;;;4.40;76.30;;;;;;4957722;29;20659;-87
2021/05/07 00:12:40;;;;;;;25.13;21.23;;;5.20;78.20;;;;;;4957804;28;20178;-89
2021/05/07 00:15:06;;;;;;;30.45;21.70;;;4.80;75.40;;;;;;4962415;29;20173;-89
2021/05/07 00:17:32;;;;;;;29.90;22.85;;;5.70;80.40;;;;;;4950161;29;20206;-88
2021/05/07 00:19:58;;;;;;;25.33;22.03;;;;;;;;;;4968181;29;20175;-88
2021/05/07 00:22:24;;;;;;;29.57;22.00;;;5.40;76.70;;;;;;4976187;28;20171;-88
2021/05/07 00:24:49;;;;;;;22.00;18.57;;;7.30;82.30;;;;;;4971594;28;20405;-88
2021/05/07 00:27:17;;;;;;;22.03;19.03;;;;;;;;;;4959972;29;20305;-88
2021/05/07 00:29:44;;;;;;;21.58;18.02;;;5.40;75.10;;;;;;4958095;29;20702;-88
2021/05/07 00:32:09;;;;;;;29.20;22.23;;;5.30;77.80;;;;;;4957430;29;20209;-88
2021/05/07 00:34:35;;;;;;;24.40;19.67;;;4.40;75.80;;;;;;4956389;29;20170;-87
2021/05/07 00:37:01;;;;;;;22.97;18.83;;;;;;;;;;4959644;29;20166;-88
2021/05/07 00:39:27;;;;;;;26.80;21.60;;;5.50;76.10;;;;;;4959089;28;20178;-87
2021/05/07 00:41:53;;;;;;;25.00;20.73;;;;;;;;;;4960770;29;20381;-88
2021/05/07 00:44:18;;;;;;;27.20;21.50;;;5.30;77.80;;;;;;4961572;28;20182;-88
2021/05/07 00:46:45;;;;;;;25.37;21.40;;;5.20;82.80;;;;;;4942224;29;20457;-88
2021/05/07 00:49:11;;;;;;;27.67;22.20;;;5.40;80.00;;;;;;4957766;29;20229;-88
2021/05/07 00:51:37;;;;;;;23.20;19.38;;;7.00;83.10;;;;;;4958913;28;20543;-87
2021/05/07 00:54:04;;;;;;;25.93;21.33;;;5.30;80.50;;;;;;4959993;29;20187;-88
2021/05/07 00:56:29;;;;;;;23.30;18.30;;;5.40;79.70;;;;;;4958406;29;20177;-88
2021/05/07 00:58:55;;;;;;;22.40;20.03;;;5.60;80.70;;;;;;4957594;29;20686;-88
2021/05/07 01:01:21;;;;;;;25.97;21.57;;;5.90;79.80;;;;;;4958122;29;20427;-88
2021/05/07 01:03:46;;;;;;;25.83;20.43;;;4.40;77.90;;;;;;4958220;29;20229;-88
2021/05/07 01:06:14;;;;;;;23.57;20.93;;;4.70;79.10;;;;;;4958812;28;20182;-87
2021/05/07 01:08:40;;;;;;;21.23;18.95;;;5.50;79.90;;;;;;4956684;29;20251;-87
2021/05/07 01:11:06;;;;;;;24.70;20.70;;;5.40;82.10;;;;;;4959384;29;20175;-89
2021/05/07 01:13:33;;;;;;;22.57;19.80;;;7.10;84.00;;;;;;4959657;29;20642;-88
2021/05/07 01:15:58;;;;;;;24.48;20.65;;;6.60;81.60;;;;;;4958995;28;20864;-88
2021/05/07 01:18:24;;;;;;;20.70;17.20;;;4.40;80.30;;;;;;4959377;29;20202;-88
2021/05/07 01:20:50;;;;;;;21.00;18.47;;;5.00;81.70;;;;;;4958994;29;20171;-88
2021/05/07 01:23:15;;;;;;;21.90;19.30;;;7.00;81.20;;;;;;4962410;29;20174;-89
2021/05/07 01:25:43;;;;;;;25.37;20.80;;;5.70;76.20;;;;;;4959277;29;20194;-88
2021/05/07 01:28:12;;;;;;;29.30;22.48;;;4.50;73.90;;;;;;4959984;29;20293;-89
2021/05/07 01:30:40;;;;;;;30.67;22.70;;;8.30;80.50;;;;;;4963661;28;20182;-89
2021/05/07 01:33:10;;;;;;;34.35;24.15;;;5.10;75.50;;;;;;4959050;29;20171;-88
2021/05/07 01:35:36;;;;;;;29.27;22.63;;;6.30;78.10;;;;;;4962270;28;20163;-88
2021/05/07 01:38:08;;;;;;;28.50;21.83;;;7.10;79.50;;;;;;4963561;29;20229;-89
2021/05/07 01:40:36;;;;;;;28.83;23.30;;;7.40;80.70;;;;;;4961965;29;20440;-88
2021/05/07 01:43:02;;;;;;;29.70;23.17;;;4.40;75.50;;;;;;4959447;29;20174;-88
2021/05/07 01:45:30;;;;;;;28.63;21.27;;;7.50;80.20;;;;;;4961154;29;20174;-88
2021/05/07 01:47:57;;;;;;;30.38;24.30;;;7.50;80.00;;;;;;4959133;29;20285;-87
2021/05/07 01:50:25;;;;;;;26.60;21.50;;;5.10;78.20;;;;;;4961537;28;20618;-89
2021/05/07 01:52:52;;;;;;;32.85;23.30;;;5.40;77.30;;;;;;4960278;29;20174;-88
2021/05/07 01:55:26;;;;;;;29.15;24.17;;;5.40;77.20;;;;;;4960417;29;20263;-88
2021/05/07 01:57:52;;;;;;;31.40;23.35;;;6.70;79.90;;;;;;4962122;28;20170;-87
2021/05/07 02:00:21;;;;;;;29.15;22.27;;;5.10;77.20;;;;;;4959207;28;20206;-88
2021/05/07 02:02:47;;;;;;;28.02;21.77;;;5.80;78.20;;;;;;4961490;29;20238;-88
2021/05/07 02:05:14;;;;;;;30.55;21.95;;;6.50;80.40;;;;;;4970463;28;20266;-88
2021/05/07 02:07:42;;;;;;;29.00;22.90;;;4.20;74.90;;;;;;4974799;29;20287;-89
2021/05/07 02:10:10;;;;;;;29.85;23.30;;;5.10;76.60;;;;;;4967407;29;20214;-88
2021/05/07 02:12:35;;;;;;;34.75;24.60;;;5.70;78.20;;;;;;4959375;29;20178;-88
2021/05/07 02:15:04;;;;;;;29.67;22.77;;;5.60;80.40;;;;;;4959253;29;20666;-88
2021/05/07 02:17:30;;;;;;;31.52;23.50;;;5.60;78.30;;;;;;4960795;29;20498;-89
2021/05/07 02:19:56;;;;;;;32.07;23.83;;;4.50;80.10;;;;;;4960171;29;20202;-89
2021/05/07 02:22:21;;;;;;;27.83;22.07;;;5.10;78.30;;;;;;4961029;29;20174;-88
2021/05/07 02:24:47;;;;;;;32.07;24.53;;;;;;;;;;4960760;29;20575;-88
2021/05/07 02:27:13;;;;;;;28.40;23.30;;;5.60;76.00;;;;;;4960658;28;20179;-88
2021/05/07 02:29:39;;;;;;;26.50;21.27;;;5.70;80.70;;;;;;4960022;29;20481;-88
2021/05/07 02:32:04;;;;;;;31.73;25.70;;;5.40;77.20;;;;;;4960529;29;20186;-87
2021/05/07 02:34:30;;;;;;;30.10;23.90;;;5.50;78.90;;;;;;4960594;29;20221;-88
2021/05/07 02:36:56;;;;;;;31.93;24.53;;;6.50;82.70;;;;;;4943469;29;20425;-89
2021/05/07 02:39:21;;;;;;;34.40;26.30;;;7.10;81.10;;;;;;4959152;29;20179;-89
2021/05/07 02:41:47;;;;;;;35.33;25.87;;;;;;;;;;4961400;29;20175;-88
2021/05/07 02:44:13;;;;;;;36.23;25.87;;;5.30;77.90;;;;;;4960019;28;20229;-89
2021/05/07 02:46:38;;;;;;;39.70;28.63;;;5.20;81.10;;;;;;4960135;28;20410;-89
2021/05/07 02:49:05;;;;;;;33.90;25.73;;;7.70;84.10;;;;;;4963860;29;20211;-89
2021/05/07 02:51:32;;;;;;;33.28;25.00;;;5.30;80.10;;;;;;4959778;29;20175;-89
2021/05/07 02:53:59;;;;;;;34.38;26.02;;;5.10;77.90;;;;;;4958688;28;20183;-89
2021/05/07 02:56:25;;;;;;;29.95;24.40;;;4.60;76.80;;;;;;4958807;28;20206;-87
2021/05/07 02:58:50;;;;;;;31.27;25.50;;;3.70;76.00;;;;;;4960141;29;20186;-88
2021/05/07 03:01:16;;;;;;;40.27;25.80;;;6.60;81.70;;;;;;4960583;29;20601;-88
2021/05/07 03:03:42;;;;;;;38.07;27.53;;;4.70;78.40;;;;;;4961014;29;20450;-88
2021/05/07 03:06:08;;;;;;;39.87;28.30;;;4.00;78.30;;;;;;4959744;29;20600;-88
2021/05/07 03:08:33;;;;;;;37.03;27.37;;;7.80;85.30;;;;;;4959055;29;20201;-88
2021/05/07 03:10:59;;;;;;;39.00;29.00;;;4.40;79.70;;;;;;4958545;29;20192;-88
2021/05/07 03:13:25;;;;;;;37.97;27.70;;;7.00;82.40;;;;;;4960447;29;20582;-88
2021/05/07 03:15:50;;;;;;;38.60;25.87;;;6.40;82.10;;;;;;4963437;29;20171;-88
2021/05/07 03:18:17;;;;;;;45.50;29.83;;;5.30;82.60;;;;;;4960444;29;20186;-88
2021/05/07 03:20:43;;;;;;;46.70;31.05;;;4.90;79.10;;;;;;4959663;29;20178;-88
2021/05/07 03:23:12;;;;;;;39.03;27.95;;;3.90;78.20;;;;;;4961520;29;20173;-87
2021/05/07 03:25:38;;;;;;;39.97;28.45;;;5.00;80.00;;;;;;4959953;29;20171;-88
2021/05/07 03:28:05;;;;;;;39.55;27.30;;;3.60;80.80;;;;;;4960578;29;20235;-88
2021/05/07 03:30:32;;;;;;;35.70;26.50;;;6.90;84.00;;;;;;4963235;29;20677;-88
2021/05/07 03:32:58;;;;;;;36.33;25.33;;;3.80;82.20;;;;;;4962115;29;20234;-89
2021/05/07 03:35:24;;;;;;;33.05;23.80;;;3.40;77.60;;;;;;4962053;29;20195;-88
2021/05/07 03:37:50;;;;;;;32.67;24.43;;;4.50;81.90;;;;;;4961283;29;20181;-88
2021/05/07 03:40:15;;;;;;;34.70;24.70;;;5.70;82.30;;;;;;4959688;29;20209;-88
2021/05/07 03:42:41;;;;;;;36.47;26.00;;;4.30;78.60;;;;;;4962802;29;20190;-87
2021/05/07 03:45:07;;;;;;;38.20;27.20;;;5.50;80.70;;;;;;4964734;29;20190;-89
2021/05/07 03:47:32;;;;;;;43.30;28.60;;;4.50;81.70;;;;;;4961657;28;20222;-87
2021/05/07 03:49:58;;;;;;;39.70;28.53;;;6.20;83.40;;;;;;4964872;29;20186;-89
2021/05/07 03:52:24;;;;;;;38.63;27.60;;;4.30;81.00;;;;;;4971131;29;20230;-88
2021/05/07 03:54:49;;;;;;;43.30;29.57;;;4.30;83.20;;;;;;4974307;29;20190;-88
2021/05/07 03:57:15;;;;;;;40.77;29.30;;;5.20;82.50;;;;;;4976755;29;20182;-88
2021/05/07 03:59:42;;;;;;;39.30;28.73;;;3.20;78.60;;;;;;4971963;28;20179;-87
2021/05/07 04:02:07;;;;;;;43.45;29.67;;;4.20;80.80;;;;;;4946178;28;20553;-87
2021/05/07 04:04:35;;;;;;;47.23;29.80;;;3.40;79.20;;;;;;4960503;29;20265;-87
2021/05/07 04:07:01;;;;;;;47.25;27.00;;;3.20;81.20;;;;;;4964472;28;20177;-88
2021/05/07 04:09:34;;;;;;;47.77;31.73;;;4.50;82.90;;;;;;4963024;29;20230;-88
2021/05/07 04:12:12;;;;;;;54.15;30.50;;;3.40;80.10;;;;;;4960917;28;20194;-87
2021/05/07 04:14:38;;;;;;;44.92;30.40;;;3.80;80.80;;;;;;4960510;28;20185;-88
2021/05/07 04:17:05;;;;;;;40.07;29.73;;;4.00;81.40;;;;;;4961396;29;20167;-86
2021/05/07 04:19:31;;;;;;;50.60;30.38;;;6.10;83.30;;;;;;4962389;28;20646;-88
2021/05/07 04:21:57;;;;;;;51.03;32.73;;;3.70;80.10;;;;;;4970183;29;20225;-87
2021/05/07 04:24:23;;;;;;;44.75;29.17;;;4.20;80.10;;;;;;4968797;29;20200;-87
2021/05/07 04:26:48;;;;;;;44.60;29.73;;;5.50;87.50;;;;;;4962946;29;20167;-87
2021/05/07 04:29:14;;;;;;;40.67;29.83;;;6.50;87.20;;;;;;4963751;29;20226;-88
2021/05/07 04:31:39;;;;;;;43.23;26.27;;;3.70;84.70;;;;;;4961377;29;20177;-88
2021/05/07 04:34:06;;;;;;;39.27;26.67;;;3.00;81.40;;;;;;4960382;29;20190;-88
2021/05/07 04:36:33;;;;;;;35.63;26.90;;;4.60;80.50;;;;;;4959209;28;20182;-87
2021/05/07 04:38:58;;;;;;;39.97;28.98;;;3.80;79.10;;;;;;4946381;29;20175;-88
2021/05/07 04:41:25;;;;;;;42.00;28.10;;;;;;;;;;4963824;29;20167;-88
2021/05/07 04:43:51;;;;;;;47.88;30.65;;;5.10;79.80;;;;;;4964923;29;20174;-89
2021/05/07 04:46:17;;;;;;;41.97;30.50;;;5.50;85.10;;;;;;4963717;29;20186;-88
2021/05/07 04:48:43;;;;;;;37.93;27.20;;;5.90;87.70;;;;;;4964897;29;20305;-87
2021/05/07 04:51:12;;;;;;;38.70;26.88;;;3.80;81.30;;;;;;4967219;29;20190;-87
2021/05/07 04:53:38;;;;;;;27.77;22.13;;;8.70;88.90;;;;;;4967682;28;20178;-87
2021/05/07 04:56:04;;;;;;;37.03;26.70;;;5.30;86.40;;;;;;4972057;29;20259;-87
2021/05/07 04:58:29;;;;;;;27.90;23.00;;;4.10;79.60;;;;;;4967794;29;20596;-86
2021/05/07 05:01:00;;;;;;;29.50;24.03;;;7.70;88.30;;;;;;4966171;29;20418;-88
2021/05/07 05:03:25;;;;;;;25.75;20.33;;;5.10;77.10;;;;;;4965896;29;20183;-88
2021/05/07 05:05:51;;;;;;;27.10;22.10;;;;;;;;;;4965944;29;20180;-88
2021/05/07 05:08:25;;;;;;;28.63;23.70;;;5.70;75.80;;;;;;4609351;28;10000449;-87
2021/05/07 05:10:55;;;;;;;36.92;24.95;;;4.70;77.30;;;;;;4931077;29;20172;-88
2021/05/07 05:13:23;;;;;;;28.73;24.63;;;7.10;79.90;;;;;;4933720;29;20179;-88
2021/05/07 05:15:52;;;;;;;30.75;23.65;;;5.90;81.20;;;;;;4935287;29;20282;-87
2021/05/07 05:18:31;;;;;;;27.10;21.95;;;5.50;79.60;;;;;;4948818;29;20190;-88
2021/05/07 05:21:03;;;;;;;26.50;21.88;;;5.60;78.30;;;;;;4951464;29;20476;-88
2021/05/07 05:23:29;;;;;;;29.20;23.52;;;5.90;77.30;;;;;;4936219;29;20226;-86
2021/05/07 05:25:55;;;;;;;30.17;24.25;;;5.40;77.00;;;;;;4937015;29;20180;-89
2021/05/07 05:28:21;;;;;;;30.73;23.35;;;7.90;85.10;;;;;;4929255;29;20254;-88
2021/05/07 05:30:47;;;;;;;27.23;22.43;;;5.70;78.70;;;;;;4947386;29;20172;-87
2021/05/07 05:33:14;;;;;;;29.83;23.02;;;4.80;79.20;;;;;;4927081;29;20419;-88
2021/05/07 05:35:40;;;;;;;35.33;25.50;;;6.20;78.40;;;;;;4927272;29;20606;-89
2021/05/07 05:38:06;;;;;;;32.63;24.38;;;5.10;75.70;;;;;;4926112;29;20183;-87
2021/05/07 05:40:32;;;;;;;37.43;25.83;;;;;;;;;;4942044;29;20182;-89
2021/05/07 05:42:58;;;;;;;31.37;24.93;;;5.90;75.80;;;;;;4943100;29;20430;-89
2021/05/07 05:45:25;;;;;;;33.93;25.77;;;6.80;85.40;;;;;;4949832;29;20732;-89
2021/05/07 05:48:12;;;;;;;29.63;22.92;;;7.00;76.80;;;;;;4950005;29;20829;-89
2021/05/07 05:50:40;;;;;;;37.25;29.02;;;6.70;77.90;;;;;;4945711;29;20646;-86
2021/05/07 05:53:05;;;;;;;35.13;27.30;;;5.30;75.00;;;;;;4955923;29;20171;-81
2021/05/07 05:55:32;;;;;;;31.63;24.67;;;5.80;76.60;;;;;;4956317;29;20241;-87
2021/05/07 05:57:57;;;;;;;34.97;26.98;;;5.90;75.90;;;;;;4955189;29;20273;-86
2021/05/07 06:00:23;;;;;;;35.47;26.87;;;5.90;75.80;;;;;;4938017;29;20281;-87
2021/05/07 06:02:49;;;;;;;39.03;29.33;;;6.10;75.90;;;;;;4956070;29;20181;-87
2021/05/07 06:05:16;;;;;;;35.37;28.30;;;6.10;76.00;;;;;;4955708;29;20588;-88
2021/05/07 06:07:42;;;;;;;40.45;29.10;;;7.90;77.90;;;;;;4946644;29;20463;-87
2021/05/07 06:10:10;;;;;;;40.85;29.35;;;6.00;76.20;;;;;;4936425;29;20223;-89
2021/05/07 06:12:36;;;;;;;40.55;30.25;;;6.10;75.50;;;;;;4918802;29;20179;-88
2021/05/07 06:15:03;;;;;;;46.23;35.57;;;6.10;76.70;;;;;;4936471;29;20167;-88
2021/05/07 06:17:28;;;;;;;43.92;32.90;;;6.00;76.60;;;;;;4942221;29;20477;-86
2021/05/07 06:19:56;;;;;;;44.70;32.27;;;5.60;78.10;;;;;;4939676;29;20258;-88
2021/05/07 06:22:25;;;;;;;39.65;30.17;;;6.20;78.00;;;;;;4937711;29;20175;-89
2021/05/07 06:24:50;;;;;;;26.00;19.92;;;6.00;76.70;;;;;;4937708;29;20198;-84
2021/05/07 06:27:16;;;;;;;24.30;18.80;;;7.20;75.30;;;;;;4940804;29;20179;-89
2021/05/07 06:29:42;;;;;;;16.00;14.30;;;5.40;73.20;;;;;;4922135;29;20230;-87
2021/05/07 06:32:07;;;;;;;17.63;15.40;;;5.40;73.60;;;;;;4925620;29;20468;-85
2021/05/07 06:34:33;;;;;;;14.30;12.80;;;5.40;75.30;;;;;;4941324;29;20267;-87
2021/05/07 06:37:00;;;;;;;15.83;14.20;;;5.10;73.10;;;;;;4924880;29;20207;-89
2021/05/07 06:39:29;;;;;;;17.58;14.98;;;5.20;73.00;;;;;;4953832;28;20413;-89
2021/05/07 06:42:34;;;;;;;13.02;11.57;;;5.10;74.30;;;;;;4953237;28;20274;-87
2021/05/07 06:45:00;;;;;;;11.18;10.07;;;5.10;74.80;;;;;;5148760;23;20276;-88
2021/05/07 06:47:28;;;;;;;14.50;13.10;;;6.70;78.30;;;;;;4992192;28;20241;-89
2021/05/07 06:49:54;;;;;;;13.20;11.93;;;5.10;75.10;;;;;;4984717;28;20191;-86
2021/05/07 06:52:20;;;;;;;12.40;11.20;;;4.40;73.60;;;;;;4974742;28;20200;-86
2021/05/07 06:54:46;;;;;;;11.75;10.77;;;5.00;75.80;;;;;;4972661;28;20213;-86
2021/05/07 06:57:11;;;;;;;13.73;12.50;;;4.70;77.00;;;;;;4974670;28;20257;-85
2021/05/07 06:59:38;;;;;;;15.53;13.13;;;4.60;76.00;;;;;;4974257;28;20316;-87
2021/05/07 07:02:03;;;;;;;13.45;11.98;;;4.70;75.90;;;;;;4974684;28;20646;-85
2021/05/07 07:04:29;;;;;;;14.07;12.53;;;7.70;80.00;;;;;;4971720;28;20266;-86
2021/05/07 07:06:55;;;;;;;9.00;8.17;;;5.00;77.50;;;;;;4965531;28;20178;-88
2021/05/07 07:09:21;;;;;;;8.63;8.02;;;4.90;75.10;;;;;;4971988;28;20677;-87
2021/05/07 07:11:46;;;;;;;8.67;7.87;;;4.70;73.80;;;;;;4972860;28;20245;-86
2021/05/07 07:14:12;;;;;;;9.57;8.57;;;5.00;73.50;;;;;;4972101;28;20177;-82
2021/05/07 07:16:38;;;;;;;8.50;7.80;;;4.90;73.50;;;;;;4974879;28;20174;-87
2021/05/07 07:19:04;;;;;;;9.32;8.60;;;5.10;72.10;;;;;;4978943;28;20392;-89
2021/05/07 07:21:30;;;;;;;9.47;8.67;;;5.10;72.90;;;;;;4988511;28;20184;-86
2021/05/07 07:23:55;;;;;;;8.40;7.70;;;4.90;73.20;;;;;;4992743;28;20437;-83
2021/05/07 07:26:21;;;;;;;8.47;7.87;;;5.20;73.60;;;;;;4975657;28;20185;-86
2021/05/07 07:28:49;;;;;;;9.00;8.30;;;5.20;73.10;;;;;;4974262;28;20205;-87
2021/05/07 07:31:16;;;;;;;8.50;7.82;;;5.50;73.70;;;;;;4973684;28;20648;-85
2021/05/07 07:33:41;;;;;;;8.27;7.55;;;5.60;73.10;;;;;;4972378;28;20197;-85
2021/05/07 07:36:07;;;;;;;7.40;6.90;;;5.00;70.40;;;;;;4965470;28;20650;-85
2021/05/07 07:45:18;;;;;;;6.68;6.20;;;5.70;71.20;;;;;;4434754;28;20534;-86
2021/05/07 07:47:43;;;;;;;6.83;6.13;;;5.60;73.20;;;;;;4971719;28;20637;-84
2021/05/07 07:50:10;;;;;;;6.60;5.97;;;5.80;71.80;;;;;;4971618;28;20174;-85
2021/05/07 07:52:37;;;;;;;6.15;5.85;;;5.90;72.30;;;;;;4971224;28;20469;-85
2021/05/07 07:55:03;;;;;;;6.38;5.97;;;5.80;69.70;;;;;;4974097;28;20528;-85
2021/05/07 07:57:29;;;;;;;8.98;5.82;;;5.80;71.20;;;;;;4964345;28;20599;-85
2021/05/07 07:59:55;;;;;;;6.67;6.10;;;5.90;71.40;;;;;;4994290;28;20200;-85
2021/05/07 08:02:21;;;;;;;6.80;6.30;;;5.80;70.00;;;;;;4994120;28;20524;-84
2021/05/07 08:04:47;;;;;;;4.93;4.63;;;5.90;70.70;;;;;;4994503;28;20176;-86
2021/05/07 08:07:12;;;;;;;5.67;5.47;;;6.50;72.50;;;;;;4976098;28;20421;-86
2021/05/07 08:09:39;;;;;;;5.33;5.13;;;6.10;70.80;;;;;;4976570;28;20177;-85
2021/05/07 08:12:05;;;;;;;5.47;5.07;;;6.30;70.60;;;;;;4994001;28;20173;-85
2021/05/07 08:14:31;;;;;;;5.97;5.68;;;6.40;70.50;;;;;;4994018;28;20173;-85
2021/05/07 08:16:57;;;;;;;5.97;5.77;;;6.40;69.10;;;;;;4992242;28;20171;-86
2021/05/07 08:19:22;;;;;;;6.17;5.87;;;6.50;69.70;;;;;;4992006;28;20470;-86
2021/05/07 08:24:13;;;;;;;6.10;5.60;;;7.20;65.70;;;;;;4969937;23;20234;-87
2021/05/07 08:26:39;;;;;;;6.10;5.80;;;7.30;65.90;;;;;;4972990;28;20835;-85
2021/05/07 08:29:04;;;;;;;6.93;6.63;;;7.30;66.10;;;;;;4953774;29;20225;-85
2021/05/07 08:31:30;;;;;;;6.90;6.60;;;7.20;66.30;;;;;;4955465;29;20543;-85
2021/05/07 08:33:55;;;;;;;5.77;5.57;;;8.30;67.10;;;;;;4955704;29;20206;-85
2021/05/07 08:36:21;;;;;;;5.53;5.30;;;9.50;62.00;;;;;;4955358;29;20171;-86
2021/05/07 08:38:47;;;;;;;5.90;5.60;;;10.30;59.10;;;;;;4955864;29;20542;-87
2021/05/07 08:41:13;;;;;;;5.27;4.97;;;11.90;54.80;;;;;;4953633;29;20178;-86
2021/05/07 08:43:39;;;;;;;5.07;4.97;;;12.90;52.50;;;;;;4955133;28;20414;-85
2021/05/07 08:46:06;;;;;;;5.23;5.03;;;14.50;52.40;;;;;;4953470;29;20674;-86
2021/05/07 08:48:32;;;;;;;4.20;4.10;;;12.50;50.00;;;;;;4937165;29;20566;-85
2021/05/07 08:50:58;;;;;;;3.80;3.80;;;14.10;49.80;;;;;;4953801;29;20418;-85
2021/05/07 08:53:25;;;;;;;4.97;4.67;;;15.40;46.80;;;;;;4953593;29;20530;-85
2021/05/07 08:55:51;;;;;;;4.10;4.00;;;17.30;47.00;;;;;;4955491;29;20202;-85
2021/05/07 08:58:26;;;;;;;3.66;3.62;;;14.50;46.80;;;;;;4919271;28;10000512;-85
2021/05/07 09:00:52;;;;;;;3.70;3.60;;;14.50;47.60;;;;;;4971082;28;20222;-85
2021/05/07 09:03:19;;;;;;;3.27;3.10;;;14.00;48.80;;;;;;4972076;28;20637;-86
2021/05/07 09:05:44;;;;;;;4.00;3.83;;;13.80;48.30;;;;;;4972161;28;20423;-88
2021/05/07 09:08:10;;;;;;;2.30;2.30;;;12.40;49.60;;;;;;4954113;28;20533;-86
2021/05/07 09:10:42;;;;;;;2.50;2.50;;;13.00;50.40;;;;;;4970492;28;20170;-87
2021/05/07 09:13:09;;;;;;;2.50;2.50;;;13.40;49.90;;;;;;4971958;28;20601;-87
2021/05/07 09:15:50;;;;;;;3.37;3.17;;;15.80;50.20;;;;;;4959317;28;20418;-85
2021/05/07 09:18:17;;;;;;;3.57;3.47;;;14.30;49.00;;;;;;4969164;28;20432;-85
2021/05/07 09:20:49;;;;;;;4.53;3.83;;;14.20;48.50;;;;;;4971413;28;20409;-85
2021/05/07 09:23:17;;;;;;;3.77;3.70;;;13.80;49.10;;;;;;4953577;28;21021;-86
2021/05/07 09:25:47;;;;;;;4.47;4.27;;;12.00;48.30;;;;;;4971724;28;20456;-85
2021/05/07 09:28:16;;;;;;;3.53;3.53;;;12.90;50.40;;;;;;4971553;28;20804;-86
2021/05/07 09:30:44;;;;;;;4.40;3.83;;;15.50;48.50;;;;;;4971575;28;20417;-86
2021/05/07 09:33:15;;;;;;;10.10;9.50;;;14.20;47.20;;;;;;4967342;28;20736;-86
2021/05/07 09:35:42;;;;;;;6.73;6.33;;;13.90;47.80;;;;;;4971288;28;20437;-87
2021/05/07 09:38:10;;;;;;;6.10;5.90;;;15.80;50.40;;;;;;4973877;28;20445;-86
2021/05/07 09:40:37;;;;;;;5.73;5.53;;;14.90;46.10;;;;;;4955285;28;20452;-88
2021/05/07 09:43:10;;;;;;;9.97;9.17;;;15.90;45.80;;;;;;4972348;28;20429;-89
2021/05/07 09:45:38;;;;;;;11.00;10.27;;;15.40;44.10;;;;;;4972851;28;20420;-91
2021/05/07 09:48:14;;;;;;;9.33;8.73;;;14.20;46.10;;;;;;4973435;28;20457;-89
2021/05/07 09:50:40;;;;;;;9.47;8.87;;;13.90;46.00;;;;;;4959614;28;20512;-89
2021/05/07 09:53:15;;;;;;;5.00;4.90;;;13.80;48.10;;;;;;4975211;28;20417;-88
2021/05/07 09:55:46;;;;;;;3.90;3.90;;;14.20;44.60;;;;;;4976057;28;20421;-88
2021/05/07 09:58:12;;;;;;;3.60;3.60;;;15.00;42.50;;;;;;4961140;28;20417;-90
2021/05/07 10:00:44;;;;;;;4.27;4.17;;;15.20;43.40;;;;;;4973247;28;20565;-90
2021/05/07 10:03:11;;;;;;;6.50;6.10;;;15.80;43.40;;;;;;4977507;28;20448;-87
2021/05/07 10:05:37;;;;;;;7.43;7.03;;;16.20;40.90;;;;;;4976748;28;20428;-85
2021/05/07 10:08:04;;;;;;;5.80;5.57;;;16.80;41.30;;;;;;4976568;28;20948;-85
2021/05/07 10:10:32;;;;;;;5.90;5.60;;;16.30;39.10;;;;;;4958894;28;20508;-85
2021/05/07 10:13:00;;;;;;;8.17;7.57;;;15.60;39.80;;;;;;4976416;28;20429;-84
2021/05/07 10:15:31;;;;;;;5.13;4.97;;;14.90;40.70;;;;;;4976294;28;20417;-83
2021/05/07 10:17:57;;;;;;;5.20;4.97;;;14.40;40.20;;;;;;4615661;28;10000284;-82
2021/05/07 10:20:31;;;;;;;4.70;4.50;;;15.00;41.50;;;;;;4973633;28;20256;-83
2021/05/07 10:22:58;;;;;;;5.87;5.67;;;16.30;39.00;;;;;;4973542;28;20452;-83
2021/05/07 10:25:26;;;;;;;5.80;5.60;;;15.90;38.90;;;;;;4973749;28;20424;-85
2021/05/07 10:27:56;;;;;;;5.73;5.53;;;15.20;39.60;;;;;;4973801;28;20508;-83
2021/05/07 10:30:30;;;;;;;6.63;6.33;;;14.30;40.50;;;;;;4973175;28;20429;-84
2021/05/07 10:33:00;;;;;;;6.27;5.97;;;13.50;42.00;;;;;;4967268;28;20413;-83
2021/05/07 10:35:39;;;;;;;7.67;7.10;;;12.80;43.90;;;;;;4975940;28;20428;-83
2021/05/07 10:38:09;;;;;;;7.60;7.20;;;12.50;44.90;;;;;;4959479;28;20832;-83
2021/05/07 10:40:34;;;;;;;6.50;6.20;;;12.40;44.60;;;;;;4975460;28;20418;-83
2021/05/07 10:43:00;;;;;;;6.57;6.17;;;12.40;44.40;;;;;;4947319;29;20466;-83
2021/05/07 10:45:46;;;;;;;5.10;5.00;;;13.20;43.40;;;;;;4956023;29;20167;-84
2021/05/07 10:48:24;;;;;;;5.40;5.20;;;15.10;41.40;;;;;;4956378;29;20206;-83
2021/05/07 10:50:56;;;;;;;4.87;4.67;;;16.40;39.50;;;;;;4956109;29;20505;-83
2021/05/07 10:53:36;;;;;;;4.33;4.23;;;17.10;37.50;;;;;;4956554;29;20437;-84
2021/05/07 10:56:21;;;;;;;4.30;4.17;;;17.20;36.10;;;;;;4956634;29;20448;-89
2021/05/07 10:58:49;;;;;;;4.53;4.33;;;17.00;35.40;;;;;;4960589;29;20828;-89
2021/05/07 11:01:26;;;;;;;3.83;3.70;;;18.00;35.00;;;;;;4957823;29;20461;-89
2021/05/07 11:04:10;;;;;;;4.00;3.80;;;18.70;33.30;;;;;;4963329;29;20486;-90
2021/05/07 11:06:42;;;;;;;3.10;3.10;;;19.40;32.00;;;;;;4956953;28;20437;-90
2021/05/07 11:09:34;;;;;;;3.27;3.17;;;19.90;31.10;;;;;;4948176;28;20984;-89
2021/05/07 11:12:03;;;;;;;3.47;3.37;;;19.70;30.30;;;;;;4942509;28;20422;-89
2021/05/07 11:14:33;;;;;;;3.00;3.00;;;16.60;29.40;;;;;;4959943;28;20548;-88
2021/05/07 11:16:59;;;;;;;3.03;3.03;;;17.70;33.20;;;;;;4979863;28;20405;-89
2021/05/07 11:19:31;;;;;;;3.70;3.60;;;16.90;36.40;;;;;;4964208;28;21035;-90
2021/05/07 11:22:07;;;;;;;4.00;3.67;;;15.10;35.90;;;;;;4990978;28;20409;-88
2021/05/07 11:25:14;;;;;;;4.40;4.27;;;15.70;36.10;;;;;;5016256;23;20487;-90
2021/05/07 11:27:47;;;;;;;3.50;3.27;;;16.20;38.20;;;;;;4979858;28;20576;-89
2021/05/07 11:30:22;;;;;;;4.73;4.53;;;12.90;36.00;;;;;;4978519;28;20413;-91
2021/05/07 11:32:50;;;;;;;2.83;2.83;;;15.80;36.00;;;;;;5100569;23;20576;-92
2021/05/07 11:35:17;;;;;;;3.17;2.87;;;18.00;34.20;;;;;;4966123;28;20456;-89
2021/05/07 11:37:43;;;;;;;3.63;3.53;;;19.60;32.30;;;;;;4981198;28;20492;-88
2021/05/07 11:40:15;;;;;;;3.30;3.20;;;20.50;30.70;;;;;;4981811;28;20444;-86
2021/05/07 11:42:45;;;;;;;3.63;3.23;;;18.30;29.80;;;;;;4963521;28;20170;-90
2021/05/07 11:45:18;;;;;;;3.70;3.60;;;18.30;30.10;;;;;;4980177;28;20896;-90
2021/05/07 11:47:44;;;;;;;3.50;3.50;;;16.80;31.60;;;;;;4982295;28;20512;-88
2021/05/07 11:50:13;;;;;;;3.80;3.70;;;15.30;32.30;;;;;;4981052;28;20405;-88
2021/05/07 11:52:42;;;;;;;3.30;3.20;;;16.50;34.20;;;;;;4982728;28;20454;-90
2021/05/07 11:55:11;;;;;;;3.50;3.40;;;17.20;35.50;;;;;;4983793;28;20414;-89
2021/05/07 11:57:37;;;;;;;3.30;3.30;;;17.90;33.70;;;;;;4955590;28;20433;-93
2021/05/07 12:00:35;;;;;;;3.47;3.17;;;18.80;31.30;;;;;;4975719;28;20498;-91
2021/05/07 12:03:24;;;;;;;4.60;4.20;;;18.90;30.50;;;;;;4981581;28;20429;-91
2021/05/07 12:05:49;;;;;;;4.07;3.87;;;17.10;31.10;;;;;;4961720;28;20421;-92
2021/05/07 12:08:26;;;;;;;3.63;3.43;;;15.90;32.20;;;;;;4982372;28;20472;-90
2021/05/07 12:10:51;;;;;;;3.50;3.40;;;16.70;31.40;;;;;;4963504;28;20208;-87
2021/05/07 12:13:24;;;;;;;3.00;3.00;;;17.80;31.80;;;;;;4992205;28;20409;-86
2021/05/07 12:15:54;;;;;;;2.87;2.87;;;18.70;30.00;;;;;;4995773;28;20162;-88
2021/05/07 12:18:21;;;;;;;3.03;2.83;;;21.00;29.40;;;;;;4991692;28;20405;-88
2021/05/07 12:20:59;;;;;;;2.70;2.60;;;19.70;28.60;;;;;;4988340;28;20428;-89
2021/05/07 12:23:26;;;;;;;3.80;3.60;;;20.20;28.20;;;;;;4951126;28;20448;-90
2021/05/07 12:25:55;;;;;;;9.17;8.30;;;20.70;28.70;;;;;;4960527;28;20444;-90
2021/05/07 12:28:22;;;;;;;8.80;5.10;;;18.60;28.40;;;;;;4979385;28;20515;-87
2021/05/07 12:30:53;;;;;;;3.73;3.63;;;17.20;28.90;;;;;;4961448;28;20425;-88
2021/05/07 12:33:28;;;;;;;8.70;4.00;;;16.80;29.90;;;;;;4965563;28;20473;-91
2021/05/07 12:35:58;;;;;;;3.27;3.20;;;16.90;30.00;;;;;;4964502;28;20428;-91
2021/05/07 12:38:29;;;;;;;3.50;3.23;;;17.00;28.90;;;;;;4980228;28;20413;-89
2021/05/07 12:41:08;;;;;;;3.93;3.73;;;16.20;28.90;;;;;;4965902;28;20585;-90
2021/05/07 12:43:36;;;;;;;3.80;3.50;;;16.50;29.20;;;;;;4981048;28;20409;-86
2021/05/07 12:46:03;;;;;;;3.23;3.13;;;17.60;29.30;;;;;;4963039;28;20420;-88
2021/05/07 12:48:28;;;;;;;3.80;3.60;;;18.70;29.50;;;;;;4976431;28;20461;-88
2021/05/07 12:50:54;;;;;;;3.30;3.07;;;18.00;28.50;;;;;;4976741;28;20410;-88
2021/05/07 12:53:23;;;;;;;3.87;3.77;;;18.00;28.70;;;;;;4960287;28;20184;-89
2021/05/07 12:55:52;;;;;;;4.07;3.80;;;19.50;30.40;;;;;;4977663;28;20445;-88
2021/05/07 12:58:17;;;;;;;4.03;3.93;;;17.10;29.50;;;;;;4976396;28;20426;-90